Time;durP1;ratioP1;P1;durP2;ratioP2;P2;SDS_P1;SDS_P2;PMS_P1;PMS_P2;Temp;Humidity;BMP_temperature;BMP_pressure;BME280_temperature;BME280_humidity;BME280_pressure;Samples;Min_cycle;Max_cycle;Signal;HPM_P1;HPM_P2
2021/12/28 00:00:48;;;;;;;36.88;15.60;;;;;;;6.50;100.00;99377.19;4973822;28;20084;-75
2021/12/28 00:03:18;;;;;;;35.03;15.10;;;;;;;6.54;100.00;99373.53;4991072;28;20100;-73
2021/12/28 00:05:46;;;;;;;40.90;16.33;;;;;;;6.64;100.00;99371.34;4988834;28;20111;-72
2021/12/28 00:08:15;;;;;;;45.88;15.48;;;;;;;6.60;100.00;99375.06;4990963;28;20089;-75
2021/12/28 00:10:43;;;;;;;32.72;14.00;;;;;;;6.53;100.00;99371.78;4988676;28;20066;-73
2021/12/28 00:13:11;;;;;;;30.27;13.65;;;;;;;6.51;100.00;99379.78;4990803;28;20064;-74
2021/12/28 00:15:49;;;;;;;36.92;14.30;;;;;;;6.56;100.00;99379.63;4991667;28;20183;-72
2021/12/28 00:18:18;;;;;;;26.60;12.15;;;;;;;6.59;100.00;99366.25;4988535;28;20142;-72
2021/12/28 00:20:49;;;;;;;38.30;13.50;;;;;;;6.53;100.00;99371.78;4988184;28;20146;-73
2021/12/28 00:23:19;;;;;;;26.92;13.43;;;;;;;6.52;100.00;99365.63;4990219;28;20054;-72
2021/12/28 00:25:50;;;;;;;43.28;14.88;;;;;;;6.55;100.00;99361.97;4987592;28;20521;-74
2021/12/28 00:28:18;;;;;;;35.15;13.55;;;;;;;6.48;100.00;99364.00;4989316;28;20058;-74
2021/12/28 00:30:47;;;;;;;35.38;11.73;;;;;;;6.48;100.00;99369.31;4988968;28;20066;-74
2021/12/28 00:33:16;;;;;;;30.42;12.25;;;;;;;6.54;100.00;99365.56;4988199;28;20164;-74
2021/12/28 00:35:46;;;;;;;33.97;11.63;;;;;;;6.55;100.00;99367.28;4990816;28;20225;-73
2021/12/28 00:38:18;;;;;;;28.33;11.77;;;;;;;6.51;100.00;99357.72;4988840;28;20053;-74
2021/12/28 00:40:46;;;;;;;34.65;10.70;;;;;;;6.50;100.00;99362.19;4991233;28;20086;-74
2021/12/28 00:43:14;;;;;;;33.60;12.00;;;;;;;6.53;100.00;99362.03;4988222;28;20129;-74
2021/12/28 00:45:42;;;;;;;30.25;10.50;;;;;;;6.45;100.00;99352.66;4989319;28;20080;-74
2021/12/28 00:48:10;;;;;;;28.75;11.07;;;;;;;6.50;100.00;99356.00;4988846;28;20065;-74
2021/12/28 00:50:39;;;;;;;25.90;10.75;;;;;;;6.50;100.00;99348.94;4990905;28;20053;-74
2021/12/28 00:53:09;;;;;;;27.63;10.27;;;;;;;6.47;100.00;99353.47;4990043;28;20472;-74
2021/12/28 00:55:37;;;;;;;35.10;9.95;;;;;;;6.47;100.00;99343.75;4989442;28;20145;-74
2021/12/28 00:58:05;;;;;;;27.70;10.80;;;;;;;6.44;100.00;99340.34;4987555;28;20138;-74
2021/12/28 01:00:35;;;;;;;21.40;9.10;;;;;;;6.40;100.00;99336.94;4989883;28;20218;-74
2021/12/28 01:03:06;;;;;;;27.85;9.43;;;;;;;6.44;100.00;99330.59;4990975;28;20505;-75
2021/12/28 01:05:35;;;;;;;34.13;10.85;;;;;;;6.39;100.00;99323.78;4992418;28;20165;-74
2021/12/28 01:08:04;;;;;;;28.52;9.38;;;;;;;6.41;100.00;99325.44;4991810;28;20061;-74
2021/12/28 01:10:36;;;;;;;27.60;9.15;;;;;;;6.35;100.00;99320.34;4992557;28;21484;-74
2021/12/28 01:13:04;;;;;;;36.97;11.70;;;;;;;6.35;100.00;99320.34;4992542;28;20056;-73
2021/12/28 01:15:32;;;;;;;28.98;10.18;;;;;;;6.39;100.00;99327.28;4992593;28;20046;-74
2021/12/28 01:18:00;;;;;;;31.67;9.48;;;;;;;6.30;100.00;99319.66;4995646;28;20057;-74
2021/12/28 01:20:29;;;;;;;33.63;9.90;;;;;;;6.35;100.00;99323.88;4996730;28;20069;-74
2021/12/28 01:22:57;;;;;;;35.17;10.52;;;;;;;6.36;100.00;99319.44;4994286;28;20604;-73
2021/12/28 01:25:26;;;;;;;25.90;9.90;;;;;;;6.30;100.00;99317.03;4994015;28;20050;-74
2021/12/28 01:27:56;;;;;;;27.65;9.05;;;;;;;6.34;100.00;99311.56;4994046;28;20574;-73
2021/12/28 01:30:26;;;;;;;33.42;9.52;;;;;;;6.41;100.00;99316.63;4991138;28;20057;-74
2021/12/28 01:32:57;;;;;;;29.88;8.82;;;;;;;6.40;100.00;99318.38;4995765;28;20385;-74
2021/12/28 01:35:25;;;;;;;30.08;9.02;;;;;;;6.45;100.00;99321.75;4990645;28;20128;-72
2021/12/28 01:37:53;;;;;;;30.65;9.02;;;;;;;6.52;100.00;99322.34;4995572;28;20209;-72
2021/12/28 01:40:24;;;;;;;27.77;8.45;;;;;;;6.58;100.00;99319.47;4990053;28;20096;-73
2021/12/28 01:42:59;;;;;;;39.17;9.38;;;;;;;6.58;100.00;99316.81;4994562;28;20057;-73
2021/12/28 01:45:35;;;;;;;33.70;9.57;;;;;;;6.70;100.00;99312.81;4991086;28;20090;-72
2021/12/28 01:48:04;;;;;;;39.25;9.82;;;;;;;6.72;100.00;99314.50;4993778;28;20353;-72
2021/12/28 01:50:32;;;;;;;28.70;8.18;;;;;;;6.72;100.00;99301.22;4992084;28;20502;-72
2021/12/28 01:53:01;;;;;;;36.45;8.05;;;;;;;6.72;100.00;99313.59;4988639;28;20058;-73
2021/12/28 01:55:29;;;;;;;32.22;8.35;;;;;;;6.71;100.00;99311.91;4992103;28;20077;-73
2021/12/28 01:57:58;;;;;;;36.90;8.80;;;;;;;6.81;100.00;99307.06;4992477;28;20068;-73
2021/12/28 02:00:26;;;;;;;33.40;8.20;;;;;;;6.78;100.00;99312.50;4992777;28;20062;-73
2021/12/28 02:02:54;;;;;;;42.80;9.25;;;;;;;6.83;100.00;99314.03;4990827;28;20172;-73
2021/12/28 02:05:23;;;;;;;34.17;8.18;;;;;;;6.78;100.00;99321.31;4992115;28;20295;-73
2021/12/28 02:07:51;;;;;;;36.72;8.57;;;;;;;6.82;100.00;99319.41;4989174;28;20061;-73
2021/12/28 02:10:19;;;;;;;28.13;7.55;;;;;;;6.73;100.00;99315.34;4992952;28;20050;-73
2021/12/28 02:12:47;;;;;;;38.60;8.35;;;;;;;6.81;100.00;99323.84;4989975;28;20057;-74
2021/12/28 02:15:16;;;;;;;27.08;8.07;;;;;;;6.77;100.00;99314.28;4990374;28;20367;-73
2021/12/28 02:17:44;;;;;;;22.67;7.25;;;;;;;6.84;100.00;99306.94;4991685;28;20144;-73
2021/12/28 02:20:17;;;;;;;30.15;7.05;;;;;;;6.84;100.00;99313.09;4992700;28;20279;-73
2021/12/28 02:22:45;;;;;;;38.75;8.32;;;;;;;6.83;100.00;99305.22;4993196;28;20357;-73
2021/12/28 02:25:16;;;;;;;34.15;7.93;;;;;;;6.80;100.00;99310.66;4993501;28;20049;-73
2021/12/28 02:27:45;;;;;;;31.13;7.93;;;;;;;6.80;100.00;99297.41;4991024;28;20068;-73
2021/12/28 02:30:17;;;;;;;37.15;8.18;;;;;;;6.81;100.00;99304.41;4991271;28;20057;-73
2021/12/28 02:32:47;;;;;;;28.60;7.17;;;;;;;6.78;100.00;99300.09;4990930;28;20054;-73
2021/12/28 02:35:18;;;;;;;26.58;7.43;;;;;;;6.76;100.00;99303.72;4993330;28;20130;-73
2021/12/28 02:37:47;;;;;;;21.65;7.13;;;;;;;6.84;100.00;99307.78;4991292;28;20494;-73
2021/12/28 02:40:17;;;;;;;25.92;7.53;;;;;;;6.87;100.00;99310.31;4988936;28;20334;-73
2021/12/28 02:42:46;;;;;;;34.55;8.45;;;;;;;6.93;100.00;99295.97;4994598;28;20056;-73
2021/12/28 02:45:20;;;;;;;31.45;7.05;;;;;;;6.85;100.00;99303.38;4990023;28;20439;-72
2021/12/28 02:47:48;;;;;;;25.88;6.72;;;;;;;6.77;100.00;99303.66;4993455;28;20148;-73
2021/12/28 02:50:20;;;;;;;22.95;7.00;;;;;;;6.78;100.00;99299.25;4991088;28;20086;-73
2021/12/28 02:52:48;;;;;;;26.83;7.07;;;;;;;6.73;100.00;99295.00;4989485;28;20173;-73
2021/12/28 02:55:20;;;;;;;29.88;7.50;;;;;;;6.79;100.00;99295.66;4989919;28;20057;-72
2021/12/28 02:57:51;;;;;;;20.67;6.50;;;;;;;6.74;100.00;99290.53;4991187;28;20566;-73
2021/12/28 03:00:31;;;;;;;26.75;7.50;;;;;;;6.74;100.00;99285.22;4984408;28;20594;-73
2021/12/28 03:02:59;;;;;;;26.25;7.15;;;;;;;6.73;100.00;99283.53;4990391;28;20112;-73
2021/12/28 03:05:29;;;;;;;30.27;7.95;;;;;;;6.78;100.00;99284.19;4990582;28;20174;-72
2021/12/28 03:07:57;;;;;;;25.25;6.63;;;;;;;6.88;100.00;99282.03;4990394;28;20062;-73
2021/12/28 03:10:26;;;;;;;24.92;6.78;;;;;;;6.88;100.00;99276.75;4988686;28;20530;-68
2021/12/28 03:12:59;;;;;;;44.80;8.50;;;;;;;6.87;100.00;99273.19;4975251;28;20050;-68
2021/12/28 03:15:28;;;;;;;33.15;7.63;;;;;;;6.90;100.00;99281.03;4988416;28;20174;-68
2021/12/28 03:17:58;;;;;;;28.83;6.43;;;;;;;6.94;100.00;99280.91;4991638;28;20555;-68
2021/12/28 03:20:34;;;;;;;31.13;7.40;;;;;;;6.88;100.00;99272.28;4971269;28;20459;-69
2021/12/28 03:23:16;;;;;;;33.83;6.93;;;;;;;6.98;100.00;99274.53;4990894;28;20057;-73
2021/12/28 03:25:44;;;;;;;22.05;6.60;;;;;;;7.03;100.00;99270.78;4991882;28;20046;-73
2021/12/28 03:28:17;;;;;;;28.65;7.55;;;;;;;7.03;100.00;99270.78;4993436;28;20054;-74
2021/12/28 03:30:46;;;;;;;20.90;7.00;;;;;;;7.01;100.00;99259.34;4991409;28;20054;-74
2021/12/28 03:33:17;;;;;;;20.50;5.95;;;;;;;7.01;100.00;99259.34;4989492;28;20292;-69
2021/12/28 03:35:47;;;;;;;24.33;7.63;;;;;;;7.05;100.00;99245.06;4992723;28;20076;-68
2021/12/28 03:38:17;;;;;;;30.58;7.38;;;;;;;6.99;100.00;99242.66;4987144;28;20054;-69
2021/12/28 03:40:46;;;;;;;23.02;6.93;;;;;;;6.98;100.00;99237.41;4990902;28;20554;-69
2021/12/28 03:43:17;;;;;;;28.67;7.55;;;;;;;6.99;100.00;99231.19;4990091;28;20145;-68
2021/12/28 03:45:48;;;;;;;21.75;7.00;;;;;;;7.03;100.00;99231.00;4988889;28;20050;-68
2021/12/28 03:48:17;;;;;;;24.05;7.50;;;;;;;7.09;100.00;99233.38;4975474;28;20302;-68
2021/12/28 03:50:48;;;;;;;27.85;7.50;;;;;;;7.11;100.00;99233.31;4991622;28;20051;-68
2021/12/28 03:53:24;;;;;;;27.15;8.82;;;;;;;7.14;100.00;99237.63;4984905;28;20178;-68
2021/12/28 03:55:53;;;;;;;24.85;7.43;;;;;;;7.13;100.00;99226.13;4990905;28;20608;-68
2021/12/28 03:58:21;;;;;;;37.05;9.77;;;;;;;7.17;100.00;99233.06;4992476;28;20066;-74
2021/12/28 04:00:52;;;;;;;30.23;9.68;;;;;;;7.18;100.00;99228.59;4989298;28;20489;-73
2021/12/28 04:03:27;;;;;;;29.98;9.40;;;;;;;7.24;100.00;99225.69;4989327;28;20046;-69
2021/12/28 04:05:58;;;;;;;29.65;9.88;;;;;;;7.25;100.00;99232.69;4987826;28;20077;-69
2021/12/28 04:08:28;;;;;;;28.05;8.63;;;;;;;7.23;100.00;99229.25;4990172;28;20058;-70
2021/12/28 04:11:12;;;;;;;31.65;10.48;;;;;;;7.25;100.00;99230.03;4990174;28;20430;-69
2021/12/28 04:13:42;;;;;;;41.25;10.73;;;;;;;7.25;100.00;99224.75;4992460;28;20066;-69
2021/12/28 04:16:11;;;;;;;33.40;9.63;;;;;;;7.20;100.00;99219.66;4989600;28;20054;-70
2021/12/28 04:18:40;;;;;;;34.75;8.80;;;;;;;7.17;100.00;99209.19;4989461;28;20057;-70
2021/12/28 04:21:13;;;;;;;23.00;8.25;;;;;;;7.23;100.00;99216.00;4990094;28;20128;-70
2021/12/28 04:23:43;;;;;;;36.22;8.25;;;;;;;7.24;100.00;99209.78;4992680;28;20553;-70
2021/12/28 04:26:11;;;;;;;25.92;8.20;;;;;;;7.25;100.00;99204.41;4990690;28;20081;-69
2021/12/28 04:28:39;;;;;;;34.88;10.25;;;;;;;7.26;100.00;99205.25;4988722;28;20061;-70
2021/12/28 04:31:08;;;;;;;31.15;7.32;;;;;;;7.26;100.00;99207.91;4989822;28;20054;-69
2021/12/28 04:33:38;;;;;;;28.55;7.28;;;;;;;7.28;100.00;99203.38;4989452;28;20074;-70
2021/12/28 04:36:10;;;;;;;32.60;7.57;;;;;;;7.34;100.00;99200.47;4993412;28;20656;-69
2021/12/28 04:38:41;;;;;;;;;;;;;;;7.36;100.00;99201.25;4978015;28;20093;-70
2021/12/28 04:41:11;;;;;;;28.40;6.93;;;;;;;7.31;100.00;99202.41;4996099;28;20359;-69
2021/12/28 04:43:40;;;;;;;33.50;7.35;;;;;;;7.36;100.00;99200.41;4994771;28;20221;-74
2021/12/28 04:46:08;;;;;;;28.10;7.05;;;;;;;7.36;100.00;99197.75;4994870;28;20053;-74
2021/12/28 04:48:36;;;;;;;27.20;7.55;;;;;;;7.34;100.00;99199.59;4992472;28;20053;-75
2021/12/28 04:51:06;;;;;;;27.83;6.90;;;;;;;7.37;100.00;99184.41;4994039;28;20210;-76
2021/12/28 04:53:35;;;;;;;22.25;6.65;;;;;;;7.33;100.00;99193.44;4991184;28;20122;-74
2021/12/28 04:56:03;;;;;;;30.67;6.55;;;;;;;7.42;100.00;99192.16;4994598;28;20136;-74
2021/12/28 04:58:32;;;;;;;29.98;6.80;;;;;;;7.45;100.00;99187.56;4991281;28;20054;-73
2021/12/28 05:00:59;;;;;;;37.58;8.07;;;;;;;7.45;100.00;99178.75;4994329;28;20064;-73
2021/12/28 05:03:28;;;;;;;25.67;7.45;;;;;;;7.48;100.00;99181.28;4994438;28;20820;-73
2021/12/28 05:05:56;;;;;;;36.45;7.72;;;;;;;7.53;100.00;99173.09;4993680;28;20064;-74
2021/12/28 05:08:24;;;;;;;23.75;7.93;;;;;;;7.56;100.00;99171.16;4993478;28;20046;-74
2021/12/28 05:10:54;;;;;;;29.80;8.05;;;;;;;7.54;100.00;99165.03;4994787;28;20512;-73
2021/12/28 05:13:23;;;;;;;26.08;8.55;;;;;;;7.63;100.00;99171.75;4992686;28;20069;-73
2021/12/28 05:15:53;;;;;;;30.88;9.20;;;;;;;7.60;100.00;99167.44;4992526;28;20124;-73
2021/12/28 05:18:21;;;;;;;29.30;8.68;;;;;;;7.65;100.00;99170.72;4992285;28;20054;-73
2021/12/28 05:20:49;;;;;;;24.35;9.98;;;;;;;7.67;100.00;99170.66;4993034;28;20054;-73
2021/12/28 05:23:17;;;;;;;26.85;9.45;;;;;;;7.70;100.00;99175.84;4993530;28;20053;-74
2021/12/28 05:25:46;;;;;;;27.88;9.43;;;;;;;7.72;100.00;99166.00;4989361;28;20199;-73
2021/12/28 05:28:15;;;;;;;28.10;11.50;;;;;;;7.72;100.00;99166.00;4993392;28;20051;-73
2021/12/28 05:30:44;;;;;;;25.13;10.15;;;;;;;7.70;100.00;99157.25;4991422;28;20062;-75
2021/12/28 05:33:12;;;;;;;28.38;9.70;;;;;;;7.72;100.00;99154.53;4994967;28;20165;-75
2021/12/28 05:35:41;;;;;;;28.80;10.15;;;;;;;7.76;100.00;99148.97;4991680;28;20235;-75
2021/12/28 05:38:11;;;;;;;27.38;9.75;;;;;;;7.76;100.00;99148.13;4995321;28;20050;-74
2021/12/28 05:40:39;;;;;;;23.95;9.35;;;;;;;7.76;100.00;99151.63;4989985;28;20412;-74
2021/12/28 05:43:07;;;;;;;26.10;9.65;;;;;;;7.80;100.00;99145.25;4990712;28;20551;-73
2021/12/28 05:45:37;;;;;;;25.77;9.95;;;;;;;7.76;100.00;99150.78;4991889;28;20532;-73
2021/12/28 05:48:05;;;;;;;22.17;9.38;;;;;;;7.77;100.00;99140.09;4990139;28;20072;-73
2021/12/28 05:50:33;;;;;;;25.23;9.52;;;;;;;7.78;100.00;99152.44;4995053;28;20089;-73
2021/12/28 05:53:01;;;;;;;30.65;10.85;;;;;;;7.76;100.00;99137.50;4990249;28;20045;-73
2021/12/28 05:55:29;;;;;;;30.20;10.05;;;;;;;7.75;100.00;99133.13;4993717;28;20073;-74
2021/12/28 05:57:57;;;;;;;24.65;9.77;;;;;;;7.78;100.00;99128.53;4991833;28;20061;-73
2021/12/28 06:00:28;;;;;;;26.35;9.43;;;;;;;7.78;100.00;99130.31;4991985;28;20074;-73
2021/12/28 06:03:03;;;;;;;22.05;9.02;;;;;;;7.78;100.00;99125.00;4992303;28;20443;-74
2021/12/28 06:05:31;;;;;;;21.13;9.40;;;;;;;7.80;100.00;99115.19;4993826;28;20165;-74
2021/12/28 06:07:59;;;;;;;25.30;9.30;;;;;;;7.76;100.00;99103.84;4990873;28;20137;-74
2021/12/28 06:10:31;;;;;;;21.20;9.70;;;;;;;7.77;100.00;99102.06;4994726;28;21087;-74
2021/12/28 06:12:58;;;;;;;23.02;8.93;;;;;;;7.76;100.00;99102.97;4992216;28;20062;-74
2021/12/28 06:15:28;;;;;;;26.40;8.50;;;;;;;7.81;100.00;99095.66;4992280;28;20093;-73
2021/12/28 06:18:06;;;;;;;22.83;8.90;;;;;;;7.81;100.00;99101.81;4991129;28;20553;-69
2021/12/28 06:20:36;;;;;;;27.90;11.02;;;;;;;7.81;100.00;99099.16;4978805;28;20057;-68
2021/12/28 06:23:05;;;;;;;20.50;8.35;;;;;;;7.80;100.00;99093.94;4993462;28;20468;-70
2021/12/28 06:25:35;;;;;;;28.08;9.70;;;;;;;7.81;100.00;99106.28;4993012;28;20049;-74
2021/12/28 06:28:05;;;;;;;23.23;9.73;;;;;;;7.88;100.00;99094.41;4993386;28;20162;-70
2021/12/28 06:30:34;;;;;;;26.52;10.05;;;;;;;7.82;100.00;99095.59;4989187;28;20103;-68
2021/12/28 06:33:02;;;;;;;25.13;10.88;;;;;;;7.84;100.00;99091.06;4992919;28;20054;-68
2021/12/28 06:35:32;;;;;;;28.88;11.60;;;;;;;7.88;100.00;99102.38;4991245;28;20049;-73
2021/12/28 06:38:00;;;;;;;31.90;12.40;;;;;;;7.88;100.00;99101.53;4992301;28;20152;-73
2021/12/28 06:40:29;;;;;;;29.50;10.85;;;;;;;7.86;100.00;99096.28;4990553;28;20081;-69
2021/12/28 06:42:58;;;;;;;32.70;13.00;;;;;;;7.86;100.00;99089.19;4992454;28;20058;-68
2021/12/28 06:45:28;;;;;;;30.90;12.40;;;;;;;7.84;100.00;99099.00;4976383;28;20085;-68
2021/12/28 06:47:56;;;;;;;35.03;14.73;;;;;;;7.87;100.00;99092.72;4991601;28;20081;-73
2021/12/28 06:50:24;;;;;;;38.97;15.05;;;;;;;7.92;100.00;99097.81;4990575;28;20045;-73
2021/12/28 06:52:53;;;;;;;37.78;15.88;;;;;;;7.93;100.00;99083.56;4987207;28;20066;-73
2021/12/28 06:55:21;;;;;;;39.67;19.10;;;;;;;7.92;100.00;99079.22;4991344;28;20061;-68
2021/12/28 06:57:49;;;;;;;55.75;22.65;;;;;;;7.94;100.00;99082.66;4993451;28;20061;-69
2021/12/28 07:00:22;;;;;;;54.83;23.20;;;;;;;7.93;100.00;99088.88;4991864;28;20054;-68
2021/12/28 07:02:54;;;;;;;51.15;24.20;;;;;;;7.97;100.00;99083.34;4986656;28;20062;-70
2021/12/28 07:05:31;;;;;;;58.05;23.75;;;;;;;7.96;100.00;99084.28;4994036;28;20146;-74
2021/12/28 07:08:01;;;;;;;58.95;28.13;;;;;;;8.02;100.00;99080.47;4989884;28;20136;-74
2021/12/28 07:10:29;;;;;;;71.57;26.15;;;;;;;8.04;100.00;99075.94;4989699;28;20585;-74
2021/12/28 07:13:00;;;;;;;60.15;26.52;;;;;;;8.01;100.00;99065.47;4988982;28;20259;-70
2021/12/28 07:15:28;;;;;;;57.55;23.27;;;;;;;8.03;100.00;99053.81;4992394;28;20365;-69
2021/12/28 07:17:57;;;;;;;48.55;23.65;;;;;;;8.02;100.00;99053.91;4973431;28;20081;-70
2021/12/28 07:20:26;;;;;;;49.00;22.13;;;;;;;8.01;100.00;99060.16;4973887;28;20057;-70
2021/12/28 07:22:56;;;;;;;55.42;24.38;;;;;;;8.03;100.00;99064.44;4988013;28;20065;-74
2021/12/28 07:25:27;;;;;;;50.63;21.48;;;;;;;8.06;100.00;99065.25;4991641;28;20046;-75
2021/12/28 07:27:55;;;;;;;57.80;22.30;;;;;;;8.00;100.00;99061.97;4988607;28;20409;-74
2021/12/28 07:30:23;;;;;;;50.30;22.45;;;;;;;8.01;100.00;99057.50;4991961;28;20065;-74
2021/12/28 07:32:56;;;;;;;45.08;21.00;;;;;;;8.07;100.00;99066.94;4992059;28;20085;-70
2021/12/28 07:35:25;;;;;;;46.10;21.38;;;;;;;8.09;100.00;99062.41;4991261;28;20054;-69
2021/12/28 07:37:54;;;;;;;43.90;19.58;;;;;;;8.07;100.00;99057.22;4989300;28;20693;-74
2021/12/28 07:40:23;;;;;;;44.83;19.85;;;;;;;8.03;100.00;99059.13;4989727;28;20141;-74
2021/12/28 07:42:53;;;;;;;42.05;19.08;;;;;;;8.03;100.00;99047.66;4990209;28;20104;-74
2021/12/28 07:45:22;;;;;;;42.53;18.52;;;;;;;8.08;100.00;99047.44;4990090;28;20069;-74
2021/12/28 07:47:53;;;;;;;47.67;21.98;;;;;;;8.08;100.00;99042.97;4990972;28;20140;-70
2021/12/28 07:50:22;;;;;;;43.17;20.60;;;;;;;8.08;100.00;99053.59;4989546;28;20381;-71
2021/12/28 07:52:52;;;;;;;47.55;21.05;;;;;;;8.09;100.00;99047.34;4990927;28;20414;-70
2021/12/28 07:55:20;;;;;;;47.92;20.23;;;;;;;8.14;100.00;99049.75;4990035;28;20058;-70
2021/12/28 07:57:49;;;;;;;51.67;21.88;;;;;;;8.12;100.00;99046.31;4991281;28;20158;-70
2021/12/28 08:00:19;;;;;;;49.20;20.25;;;;;;;8.13;100.00;99037.44;4988370;28;20545;-74
2021/12/28 08:02:48;;;;;;;50.58;23.70;;;;;;;8.13;100.00;99043.59;4989275;28;20057;-74
2021/12/28 08:05:19;;;;;;;55.80;22.92;;;;;;;8.10;100.00;99029.63;4989280;28;20046;-69
2021/12/28 08:07:48;;;;;;;51.42;21.95;;;;;;;8.13;100.00;99032.13;4990893;28;20740;-74
2021/12/28 08:10:18;;;;;;;54.92;23.35;;;;;;;8.13;100.00;99035.63;4987047;28;20154;-74
2021/12/28 08:12:47;;;;;;;55.30;22.70;;;;;;;8.15;100.00;99032.91;4989440;28;20662;-73
2021/12/28 08:15:16;;;;;;;51.88;21.08;;;;;;;8.12;100.00;99033.03;4990071;28;20058;-69
2021/12/28 08:17:47;;;;;;;48.28;21.30;;;;;;;8.15;100.00;99038.22;4989526;28;20153;-69
2021/12/28 08:20:17;;;;;;;46.80;20.55;;;;;;;8.17;100.00;99020.38;4990424;28;20054;-74
2021/12/28 08:22:47;;;;;;;43.70;18.67;;;;;;;8.19;100.00;99029.16;4991011;28;20405;-69
2021/12/28 08:25:18;;;;;;;40.53;19.52;;;;;;;8.19;100.00;99031.81;4992028;28;20054;-74
2021/12/28 08:27:48;;;;;;;40.72;17.45;;;;;;;8.28;100.00;99018.06;4989796;28;20082;-69
2021/12/28 08:30:18;;;;;;;35.08;16.08;;;;;;;8.28;100.00;99026.03;4975944;28;20121;-73
2021/12/28 08:32:48;;;;;;;36.97;16.85;;;;;;;8.25;100.00;99026.16;4987201;28;20220;-74
2021/12/28 08:35:19;;;;;;;38.97;18.38;;;;;;;8.26;100.00;99024.38;4991884;28;20058;-69
2021/12/28 08:37:48;;;;;;;33.88;16.02;;;;;;;8.32;100.00;99026.72;4989094;28;20483;-69
2021/12/28 08:40:20;;;;;;;32.47;15.65;;;;;;;8.31;100.00;99015.25;4990131;28;20129;-69
2021/12/28 08:42:49;;;;;;;38.72;17.13;;;;;;;8.34;100.00;99014.19;4987370;28;20057;-70
2021/12/28 08:45:18;;;;;;;40.58;18.15;;;;;;;8.34;100.00;99012.44;4989922;28;20057;-70
2021/12/28 08:47:50;;;;;;;35.17;14.80;;;;;;;8.33;100.00;99005.38;4989963;28;20049;-69
2021/12/28 08:50:20;;;;;;;29.42;13.93;;;;;;;8.38;100.00;99010.47;4991929;28;20053;-70
2021/12/28 08:52:53;;;;;;;35.58;14.82;;;;;;;8.43;100.00;99004.91;4988895;28;20112;-70
2021/12/28 08:55:25;;;;;;;35.28;15.77;;;;;;;8.40;100.00;99012.09;4989258;28;20060;-71
2021/12/28 08:57:57;;;;;;;31.05;14.80;;;;;;;8.47;100.00;99004.69;4990224;28;20490;-71
2021/12/28 09:00:28;;;;;;;28.77;13.02;;;;;;;8.45;100.00;99003.06;4990591;28;20049;-70
2021/12/28 09:03:00;;;;;;;33.85;14.98;;;;;;;8.48;100.00;98994.91;4990156;28;20137;-70
2021/12/28 09:05:30;;;;;;;29.88;12.85;;;;;;;8.49;100.00;98984.19;4987203;28;20058;-70
2021/12/28 09:08:00;;;;;;;27.77;14.02;;;;;;;8.54;100.00;98982.16;4989909;28;20078;-70
2021/12/28 09:10:30;;;;;;;25.60;11.77;;;;;;;8.55;100.00;98986.53;4991018;28;20320;-70
2021/12/28 09:12:58;;;;;;;28.08;12.38;;;;;;;8.58;100.00;98986.38;4987825;28;20070;-70
2021/12/28 09:15:26;;;;;;;24.30;11.27;;;;;;;8.58;100.00;98983.72;4987309;28;20082;-69
2021/12/28 09:17:54;;;;;;;19.55;10.18;;;;;;;8.64;100.00;98969.22;4988821;28;20058;-69
2021/12/28 09:20:26;;;;;;;18.85;8.45;;;;;;;8.70;100.00;98973.34;4985898;28;20532;-69
2021/12/28 09:23:05;;;;;;;20.73;7.97;;;;;;;8.70;100.00;98968.91;4990647;28;20073;-69
2021/12/28 09:25:33;;;;;;;20.35;7.75;;;;;;;8.73;100.00;98973.19;4978951;28;20588;-69
2021/12/28 09:28:03;;;;;;;16.88;7.90;;;;;;;8.74;100.00;98959.81;4989943;28;20133;-68
2021/12/28 09:30:32;;;;;;;16.65;8.45;;;;;;;8.75;100.00;98972.19;4992737;28;20062;-68
2021/12/28 09:33:01;;;;;;;15.98;7.10;;;;;;;8.74;100.00;98972.25;4993389;28;20060;-68
2021/12/28 09:35:32;;;;;;;19.77;7.88;;;;;;;8.81;100.00;98956.84;4976676;28;20116;-69
2021/12/28 09:38:02;;;;;;;14.57;6.88;;;;;;;8.77;100.00;98964.97;4974433;28;20108;-70
2021/12/28 09:40:32;;;;;;;14.68;6.82;;;;;;;8.84;100.00;98959.34;4992120;28;20049;-71
2021/12/28 09:43:01;;;;;;;16.33;7.07;;;;;;;8.83;100.00;98966.44;4975157;28;20062;-68
2021/12/28 09:45:29;;;;;;;15.93;7.35;;;;;;;8.87;100.00;98957.34;4991975;28;20062;-68
2021/12/28 09:47:59;;;;;;;13.05;6.43;;;;;;;8.85;100.00;98953.91;4991329;28;20937;-68
2021/12/28 09:50:29;;;;;;;14.27;6.15;;;;;;;8.85;100.00;98958.38;4993634;28;20515;-68
2021/12/28 09:53:00;;;;;;;14.90;6.18;;;;;;;8.85;100.00;98945.06;4991570;28;20126;-69
2021/12/28 09:55:29;;;;;;;12.07;6.30;;;;;;;8.86;100.00;98941.47;4990874;28;20058;-69
2021/12/28 09:57:59;;;;;;;14.60;6.43;;;;;;;8.82;100.00;98938.13;4991462;28;20072;-69
2021/12/28 10:00:28;;;;;;;12.75;5.82;;;;;;;8.82;100.00;98938.13;4993829;28;20259;-71
2021/12/28 10:03:13;;;;;;;11.70;5.78;;;;;;;8.81;100.00;98938.22;4990068;28;20391;-68
2021/12/28 10:05:45;;;;;;;10.88;5.60;;;;;;;8.84;100.00;98946.03;4993924;28;20054;-69
2021/12/28 10:08:15;;;;;;;10.75;4.80;;;;;;;8.76;100.00;98939.31;4990917;28;20491;-68
2021/12/28 10:10:47;;;;;;;9.15;4.60;;;;;;;8.77;100.00;98935.72;4990572;28;20099;-69
2021/12/28 10:13:21;;;;;;;7.85;4.10;;;;;;;8.78;100.00;98928.59;4996484;28;20145;-69
2021/12/28 10:15:51;;;;;;;8.98;3.78;;;;;;;8.74;100.00;98921.75;4991940;28;20542;-72
2021/12/28 10:18:20;;;;;;;9.88;4.20;;;;;;;8.72;100.00;98921.81;4995166;28;20079;-74
2021/12/28 10:20:50;;;;;;;9.20;3.97;;;;;;;8.71;100.00;98921.91;4990429;28;20627;-73
2021/12/28 10:23:23;;;;;;;9.38;3.90;;;;;;;8.77;100.00;98924.22;4993465;28;20054;-74
2021/12/28 10:25:54;;;;;;;8.15;4.18;;;;;;;8.76;100.00;98919.84;4990518;28;20092;-74
2021/12/28 10:28:27;;;;;;;7.82;3.85;;;;;;;8.76;100.00;98920.69;4993091;28;20050;-74
2021/12/28 10:31:00;;;;;;;7.10;3.90;;;;;;;8.70;100.00;98915.75;4990567;28;20100;-74
2021/12/28 10:33:34;;;;;;;9.10;4.13;;;;;;;8.69;100.00;98911.34;4991921;28;20495;-74
2021/12/28 10:36:05;;;;;;;9.25;4.30;;;;;;;8.70;100.00;98917.50;4988004;28;20054;-74
2021/12/28 10:38:38;;;;;;;7.80;3.75;;;;;;;8.70;100.00;98909.53;4992168;28;20513;-73
2021/12/28 10:41:09;;;;;;;11.02;4.75;;;;;;;8.68;100.00;98908.78;4991516;28;20490;-74
2021/12/28 10:43:39;;;;;;;11.80;4.57;;;;;;;8.68;100.00;98900.78;4988915;28;20057;-74
2021/12/28 10:46:09;;;;;;;10.23;4.70;;;;;;;8.63;100.00;98901.03;4990381;28;20056;-74
2021/12/28 10:48:40;;;;;;;10.55;4.95;;;;;;;8.59;100.00;98895.03;4992791;28;20065;-70
2021/12/28 10:51:12;;;;;;;9.40;4.75;;;;;;;8.58;100.00;98896.00;4989237;28;20104;-70
2021/12/28 10:53:55;;;;;;;9.65;5.00;;;;;;;8.52;100.00;98891.00;4988832;28;20065;-69
2021/12/28 10:56:25;;;;;;;9.02;4.25;;;;;;;8.51;100.00;98889.31;4988395;28;20506;-69
2021/12/28 10:58:54;;;;;;;13.38;4.90;;;;;;;8.51;100.00;98897.28;4993372;28;20045;-69
2021/12/28 11:01:26;;;;;;;12.85;4.55;;;;;;;8.52;100.00;98887.50;4991474;28;20049;-69
2021/12/28 11:03:58;;;;;;;10.10;4.95;;;;;;;8.50;100.00;98884.91;4991739;28;20065;-69
2021/12/28 11:06:31;;;;;;;10.88;4.38;;;;;;;8.48;100.00;98881.50;4979068;28;20313;-69
2021/12/28 11:09:06;;;;;;;7.00;3.78;;;;;;;8.52;100.00;98880.38;4992825;28;20613;-69
2021/12/28 11:11:35;;;;;;;9.38;4.03;;;;;;;8.47;100.00;98877.09;4990609;28;20058;-68
2021/12/28 11:14:07;;;;;;;10.10;4.10;;;;;;;8.42;100.00;98868.50;4988730;28;20580;-71
2021/12/28 11:16:37;;;;;;;9.77;4.25;;;;;;;8.41;100.00;98866.75;4989854;28;21012;-70
2021/12/28 11:19:09;;;;;;;8.95;4.00;;;;;;;8.39;100.00;98866.88;4987109;28;20636;-70
2021/12/28 11:21:40;;;;;;;;;;;;;;;8.44;100.00;98858.66;4992902;28;20132;-71
2021/12/28 11:24:15;;;;;;;8.07;3.80;;;;;;;8.46;100.00;98856.75;4988497;28;19960;-70
2021/12/28 11:26:45;;;;;;;11.05;3.75;;;;;;;8.49;100.00;98850.44;4991311;28;20100;-69
2021/12/28 11:29:17;;;;;;;11.07;4.30;;;;;;;8.49;100.00;98853.09;4988705;28;20058;-69
2021/12/28 11:31:50;;;;;;;11.35;3.60;;;;;;;8.48;100.00;98848.72;4993277;28;20100;-69
2021/12/28 11:34:24;;;;;;;10.85;4.68;;;;;;;8.44;100.00;98845.38;4989493;28;20065;-69
2021/12/28 11:36:55;;;;;;;8.55;3.92;;;;;;;8.48;100.00;98846.06;4992541;28;20117;-68